sensor_id;sensor_type;location;lat;lon;timestamp;P1;durP1;ratioP1;P2;durP2;ratioP2
62740;SDS011;48790;55.656;37.702;2022-07-04T00:00:28;22.42;;;8.63;;
62740;SDS011;48790;55.656;37.702;2022-07-04T00:02:54;20.27;;;8.73;;
62740;SDS011;48790;55.656;37.702;2022-07-04T00:05:20;20.48;;;8.55;;
62740;SDS011;48790;55.656;37.702;2022-07-04T00:07:47;20.70;;;8.90;;
62740;SDS011;48790;55.656;37.702;2022-07-04T00:10:17;21.48;;;9.15;;
62740;SDS011;48790;55.656;37.702;2022-07-04T00:12:44;19.98;;;8.20;;
62740;SDS011;48790;55.656;37.702;2022-07-04T00:15:11;21.88;;;8.65;;
62740;SDS011;48790;55.656;37.702;2022-07-04T00:17:37;21.08;;;8.93;;
62740;SDS011;48790;55.656;37.702;2022-07-04T00:20:04;18.42;;;8.63;;
62740;SDS011;48790;55.656;37.702;2022-07-04T00:22:31;19.08;;;8.73;;
62740;SDS011;48790;55.656;37.702;2022-07-04T00:24:57;19.83;;;8.35;;
62740;SDS011;48790;55.656;37.702;2022-07-04T00:27:23;18.02;;;8.82;;
62740;SDS011;48790;55.656;37.702;2022-07-04T00:29:49;21.42;;;8.52;;
62740;SDS011;48790;55.656;37.702;2022-07-04T00:32:15;24.50;;;8.77;;
62740;SDS011;48790;55.656;37.702;2022-07-04T00:34:41;23.23;;;7.68;;
62740;SDS011;48790;55.656;37.702;2022-07-04T00:37:07;14.38;;;8.30;;
62740;SDS011;48790;55.656;37.702;2022-07-04T00:39:33;21.55;;;8.48;;
62740;SDS011;48790;55.656;37.702;2022-07-04T00:41:59;18.85;;;7.88;;
62740;SDS011;48790;55.656;37.702;2022-07-04T00:44:25;21.98;;;8.02;;
62740;SDS011;48790;55.656;37.702;2022-07-04T00:46:51;19.85;;;7.72;;
62740;SDS011;48790;55.656;37.702;2022-07-04T00:49:17;15.82;;;7.78;;
62740;SDS011;48790;55.656;37.702;2022-07-04T00:51:43;15.70;;;8.13;;
62740;SDS011;48790;55.656;37.702;2022-07-04T00:54:11;13.98;;;7.78;;
62740;SDS011;48790;55.656;37.702;2022-07-04T00:56:39;18.38;;;7.50;;
62740;SDS011;48790;55.656;37.702;2022-07-04T00:59:06;24.80;;;8.40;;
62740;SDS011;48790;55.656;37.702;2022-07-04T01:01:32;23.70;;;8.30;;
62740;SDS011;48790;55.656;37.702;2022-07-04T01:03:58;22.35;;;8.20;;
62740;SDS011;48790;55.656;37.702;2022-07-04T01:06:25;22.55;;;8.63;;
62740;SDS011;48790;55.656;37.702;2022-07-04T01:08:51;19.58;;;8.13;;
62740;SDS011;48790;55.656;37.702;2022-07-04T01:11:18;21.35;;;8.02;;
62740;SDS011;48790;55.656;37.702;2022-07-04T01:13:44;21.10;;;8.30;;
62740;SDS011;48790;55.656;37.702;2022-07-04T01:16:29;15.45;;;7.50;;
62740;SDS011;48790;55.656;37.702;2022-07-04T01:18:55;22.08;;;8.32;;
62740;SDS011;48790;55.656;37.702;2022-07-04T01:21:21;22.10;;;8.23;;
62740;SDS011;48790;55.656;37.702;2022-07-04T01:23:47;27.48;;;7.97;;
62740;SDS011;48790;55.656;37.702;2022-07-04T01:26:13;23.35;;;7.95;;
62740;SDS011;48790;55.656;37.702;2022-07-04T01:28:39;20.42;;;7.80;;
62740;SDS011;48790;55.656;37.702;2022-07-04T01:31:05;21.40;;;8.57;;
62740;SDS011;48790;55.656;37.702;2022-07-04T01:33:32;20.65;;;8.15;;
62740;SDS011;48790;55.656;37.702;2022-07-04T01:35:58;19.90;;;8.38;;
62740;SDS011;48790;55.656;37.702;2022-07-04T01:38:24;30.70;;;8.90;;
62740;SDS011;48790;55.656;37.702;2022-07-04T01:40:50;17.00;;;7.90;;
62740;SDS011;48790;55.656;37.702;2022-07-04T01:43:16;20.95;;;8.48;;
62740;SDS011;48790;55.656;37.702;2022-07-04T01:45:42;19.20;;;8.13;;
62740;SDS011;48790;55.656;37.702;2022-07-04T01:48:10;21.83;;;8.60;;
62740;SDS011;48790;55.656;37.702;2022-07-04T01:50:37;32.25;;;9.00;;
62740;SDS011;48790;55.656;37.702;2022-07-04T01:53:03;26.75;;;9.20;;
62740;SDS011;48790;55.656;37.702;2022-07-04T01:55:30;22.05;;;8.98;;
62740;SDS011;48790;55.656;37.702;2022-07-04T01:57:56;21.52;;;8.82;;
62740;SDS011;48790;55.656;37.702;2022-07-04T02:00:23;23.83;;;9.45;;
62740;SDS011;48790;55.656;37.702;2022-07-04T02:03:08;30.92;;;9.35;;
62740;SDS011;48790;55.656;37.702;2022-07-04T02:05:34;23.35;;;9.30;;
62740;SDS011;48790;55.656;37.702;2022-07-04T02:08:03;28.70;;;9.43;;
62740;SDS011;48790;55.656;37.702;2022-07-04T02:10:32;28.85;;;9.13;;
62740;SDS011;48790;55.656;37.702;2022-07-04T02:12:59;28.83;;;9.48;;
62740;SDS011;48790;55.656;37.702;2022-07-04T02:15:37;24.75;;;9.18;;
62740;SDS011;48790;55.656;37.702;2022-07-04T02:18:04;25.20;;;9.60;;
62740;SDS011;48790;55.656;37.702;2022-07-04T02:20:31;30.02;;;9.60;;
62740;SDS011;48790;55.656;37.702;2022-07-04T02:22:58;32.58;;;8.75;;
62740;SDS011;48790;55.656;37.702;2022-07-04T02:25:24;27.60;;;8.82;;
62740;SDS011;48790;55.656;37.702;2022-07-04T02:27:54;36.22;;;9.35;;
62740;SDS011;48790;55.656;37.702;2022-07-04T02:30:20;26.38;;;9.13;;
62740;SDS011;48790;55.656;37.702;2022-07-04T02:32:46;20.55;;;8.95;;
62740;SDS011;48790;55.656;37.702;2022-07-04T02:35:12;29.45;;;8.70;;
62740;SDS011;48790;55.656;37.702;2022-07-04T02:37:39;22.45;;;8.75;;
62740;SDS011;48790;55.656;37.702;2022-07-04T02:40:05;21.63;;;9.10;;
62740;SDS011;48790;55.656;37.702;2022-07-04T02:42:32;22.00;;;8.88;;
62740;SDS011;48790;55.656;37.702;2022-07-04T02:44:58;27.90;;;9.48;;
62740;SDS011;48790;55.656;37.702;2022-07-04T02:47:25;18.13;;;8.35;;
62740;SDS011;48790;55.656;37.702;2022-07-04T02:49:51;19.25;;;8.52;;
62740;SDS011;48790;55.656;37.702;2022-07-04T02:52:17;19.98;;;8.20;;
62740;SDS011;48790;55.656;37.702;2022-07-04T02:54:43;19.98;;;8.80;;
62740;SDS011;48790;55.656;37.702;2022-07-04T02:57:10;15.70;;;8.57;;
62740;SDS011;48790;55.656;37.702;2022-07-04T02:59:36;16.75;;;8.30;;
62740;SDS011;48790;55.656;37.702;2022-07-04T03:02:02;18.80;;;8.35;;
62740;SDS011;48790;55.656;37.702;2022-07-04T03:04:28;20.02;;;8.43;;
62740;SDS011;48790;55.656;37.702;2022-07-04T03:06:54;18.17;;;8.50;;
62740;SDS011;48790;55.656;37.702;2022-07-04T03:09:20;19.13;;;8.65;;
62740;SDS011;48790;55.656;37.702;2022-07-04T03:11:46;19.85;;;8.43;;
62740;SDS011;48790;55.656;37.702;2022-07-04T03:14:12;29.10;;;9.23;;
62740;SDS011;48790;55.656;37.702;2022-07-04T03:16:38;20.75;;;8.55;;
62740;SDS011;48790;55.656;37.702;2022-07-04T03:19:03;16.90;;;8.60;;
62740;SDS011;48790;55.656;37.702;2022-07-04T03:21:29;24.85;;;9.30;;
62740;SDS011;48790;55.656;37.702;2022-07-04T03:23:55;29.65;;;9.40;;
62740;SDS011;48790;55.656;37.702;2022-07-04T03:26:28;28.20;;;9.32;;
62740;SDS011;48790;55.656;37.702;2022-07-04T03:28:56;20.17;;;8.80;;
62740;SDS011;48790;55.656;37.702;2022-07-04T03:31:23;22.33;;;9.60;;
62740;SDS011;48790;55.656;37.702;2022-07-04T03:33:49;18.48;;;8.65;;
62740;SDS011;48790;55.656;37.702;2022-07-04T03:36:15;23.83;;;8.88;;
62740;SDS011;48790;55.656;37.702;2022-07-04T03:38:43;17.70;;;8.45;;
62740;SDS011;48790;55.656;37.702;2022-07-04T03:41:09;23.88;;;8.82;;
62740;SDS011;48790;55.656;37.702;2022-07-04T03:43:35;20.10;;;8.80;;
62740;SDS011;48790;55.656;37.702;2022-07-04T03:46:02;20.67;;;8.48;;
62740;SDS011;48790;55.656;37.702;2022-07-04T03:48:28;18.75;;;8.23;;
62740;SDS011;48790;55.656;37.702;2022-07-04T03:50:54;23.65;;;8.98;;
62740;SDS011;48790;55.656;37.702;2022-07-04T03:53:20;24.35;;;8.98;;
62740;SDS011;48790;55.656;37.702;2022-07-04T03:55:46;22.13;;;7.90;;
62740;SDS011;48790;55.656;37.702;2022-07-04T03:58:12;22.00;;;9.00;;
62740;SDS011;48790;55.656;37.702;2022-07-04T04:00:38;22.33;;;8.60;;
62740;SDS011;48790;55.656;37.702;2022-07-04T04:03:05;20.50;;;8.85;;
62740;SDS011;48790;55.656;37.702;2022-07-04T04:05:52;27.08;;;8.52;;
62740;SDS011;48790;55.656;37.702;2022-07-04T04:08:18;22.10;;;8.80;;
62740;SDS011;48790;55.656;37.702;2022-07-04T04:10:44;17.75;;;7.88;;
62740;SDS011;48790;55.656;37.702;2022-07-04T04:13:10;21.33;;;8.50;;
62740;SDS011;48790;55.656;37.702;2022-07-04T04:15:36;16.10;;;7.70;;
62740;SDS011;48790;55.656;37.702;2022-07-04T04:18:02;17.55;;;8.32;;
62740;SDS011;48790;55.656;37.702;2022-07-04T04:20:28;27.52;;;8.15;;
62740;SDS011;48790;55.656;37.702;2022-07-04T04:22:54;23.45;;;8.00;;
62740;SDS011;48790;55.656;37.702;2022-07-04T04:25:20;18.23;;;8.02;;
62740;SDS011;48790;55.656;37.702;2022-07-04T04:27:46;18.58;;;7.90;;
62740;SDS011;48790;55.656;37.702;2022-07-04T04:30:12;18.38;;;8.35;;
62740;SDS011;48790;55.656;37.702;2022-07-04T04:32:38;17.08;;;7.93;;
62740;SDS011;48790;55.656;37.702;2022-07-04T04:35:04;19.55;;;8.38;;
62740;SDS011;48790;55.656;37.702;2022-07-04T04:37:30;21.63;;;7.68;;
62740;SDS011;48790;55.656;37.702;2022-07-04T04:39:56;23.38;;;8.00;;
62740;SDS011;48790;55.656;37.702;2022-07-04T04:42:22;19.80;;;7.93;;
62740;SDS011;48790;55.656;37.702;2022-07-04T04:44:48;21.10;;;8.43;;
62740;SDS011;48790;55.656;37.702;2022-07-04T04:47:14;18.77;;;8.10;;
62740;SDS011;48790;55.656;37.702;2022-07-04T04:49:40;19.95;;;8.10;;
62740;SDS011;48790;55.656;37.702;2022-07-04T04:52:06;19.65;;;8.00;;
62740;SDS011;48790;55.656;37.702;2022-07-04T04:54:33;29.48;;;8.60;;
62740;SDS011;48790;55.656;37.702;2022-07-04T04:56:59;18.27;;;8.05;;
62740;SDS011;48790;55.656;37.702;2022-07-04T04:59:26;28.08;;;8.52;;
62740;SDS011;48790;55.656;37.702;2022-07-04T05:01:53;24.88;;;7.65;;
62740;SDS011;48790;55.656;37.702;2022-07-04T05:04:18;29.23;;;8.70;;
62740;SDS011;48790;55.656;37.702;2022-07-04T05:06:45;23.88;;;8.82;;
62740;SDS011;48790;55.656;37.702;2022-07-04T05:09:11;34.63;;;8.63;;
62740;SDS011;48790;55.656;37.702;2022-07-04T05:11:37;19.38;;;8.57;;
62740;SDS011;48790;55.656;37.702;2022-07-04T05:14:03;19.95;;;7.82;;
62740;SDS011;48790;55.656;37.702;2022-07-04T05:16:29;20.40;;;8.82;;
62740;SDS011;48790;55.656;37.702;2022-07-04T05:18:55;17.25;;;8.35;;
62740;SDS011;48790;55.656;37.702;2022-07-04T05:21:21;14.75;;;7.82;;
62740;SDS011;48790;55.656;37.702;2022-07-04T05:23:47;15.68;;;7.80;;
62740;SDS011;48790;55.656;37.702;2022-07-04T05:26:13;15.75;;;7.78;;
62740;SDS011;48790;55.656;37.702;2022-07-04T05:28:39;16.15;;;6.93;;
62740;SDS011;48790;55.656;37.702;2022-07-04T05:31:05;14.23;;;7.15;;
62740;SDS011;48790;55.656;37.702;2022-07-04T05:33:31;19.30;;;7.75;;
62740;SDS011;48790;55.656;37.702;2022-07-04T05:35:57;17.98;;;7.40;;
62740;SDS011;48790;55.656;37.702;2022-07-04T05:38:23;9.30;;;7.25;;
62740;SDS011;48790;55.656;37.702;2022-07-04T05:40:48;16.65;;;7.75;;
62740;SDS011;48790;55.656;37.702;2022-07-04T05:43:15;11.95;;;7.63;;
62740;SDS011;48790;55.656;37.702;2022-07-04T05:45:40;18.30;;;7.88;;
62740;SDS011;48790;55.656;37.702;2022-07-04T05:48:06;13.32;;;6.90;;
62740;SDS011;48790;55.656;37.702;2022-07-04T05:50:32;15.25;;;7.35;;
62740;SDS011;48790;55.656;37.702;2022-07-04T05:52:59;19.90;;;6.82;;
62740;SDS011;48790;55.656;37.702;2022-07-04T05:55:25;13.32;;;6.82;;
62740;SDS011;48790;55.656;37.702;2022-07-04T05:57:50;10.32;;;6.57;;
62740;SDS011;48790;55.656;37.702;2022-07-04T06:00:16;11.20;;;6.30;;
62740;SDS011;48790;55.656;37.702;2022-07-04T06:02:42;14.70;;;6.38;;
62740;SDS011;48790;55.656;37.702;2022-07-04T06:05:08;11.32;;;6.10;;
62740;SDS011;48790;55.656;37.702;2022-07-04T06:07:34;14.70;;;6.25;;
62740;SDS011;48790;55.656;37.702;2022-07-04T06:10:00;11.50;;;5.80;;
62740;SDS011;48790;55.656;37.702;2022-07-04T06:12:26;16.52;;;6.30;;
62740;SDS011;48790;55.656;37.702;2022-07-04T06:14:52;20.27;;;6.30;;
62740;SDS011;48790;55.656;37.702;2022-07-04T06:17:18;10.98;;;5.72;;
62740;SDS011;48790;55.656;37.702;2022-07-04T06:19:45;15.10;;;6.22;;
62740;SDS011;48790;55.656;37.702;2022-07-04T06:22:11;11.88;;;6.13;;
62740;SDS011;48790;55.656;37.702;2022-07-04T06:24:38;13.02;;;5.50;;
62740;SDS011;48790;55.656;37.702;2022-07-04T06:27:04;12.48;;;5.90;;
62740;SDS011;48790;55.656;37.702;2022-07-04T06:29:30;10.15;;;4.82;;
62740;SDS011;48790;55.656;37.702;2022-07-04T06:31:56;8.90;;;5.43;;
62740;SDS011;48790;55.656;37.702;2022-07-04T06:34:22;11.52;;;5.28;;
62740;SDS011;48790;55.656;37.702;2022-07-04T06:37:06;10.90;;;4.95;;
62740;SDS011;48790;55.656;37.702;2022-07-04T06:39:32;10.98;;;5.35;;
62740;SDS011;48790;55.656;37.702;2022-07-04T06:41:58;12.73;;;5.32;;
62740;SDS011;48790;55.656;37.702;2022-07-04T06:44:24;13.38;;;5.55;;
62740;SDS011;48790;55.656;37.702;2022-07-04T06:46:50;15.60;;;5.15;;
62740;SDS011;48790;55.656;37.702;2022-07-04T06:49:16;7.53;;;4.75;;
62740;SDS011;48790;55.656;37.702;2022-07-04T06:51:42;9.13;;;4.68;;
62740;SDS011;48790;55.656;37.702;2022-07-04T06:54:08;8.23;;;4.25;;
62740;SDS011;48790;55.656;37.702;2022-07-04T06:56:34;6.50;;;4.25;;
62740;SDS011;48790;55.656;37.702;2022-07-04T06:59:00;7.45;;;4.50;;
62740;SDS011;48790;55.656;37.702;2022-07-04T07:01:28;9.68;;;5.15;;
62740;SDS011;48790;55.656;37.702;2022-07-04T07:03:54;8.38;;;4.80;;
62740;SDS011;48790;55.656;37.702;2022-07-04T07:06:20;11.15;;;4.80;;
62740;SDS011;48790;55.656;37.702;2022-07-04T07:08:48;76.00;;;10.43;;
62740;SDS011;48790;55.656;37.702;2022-07-04T07:11:14;34.38;;;6.85;;
62740;SDS011;48790;55.656;37.702;2022-07-04T07:13:49;12.00;;;4.97;;
62740;SDS011;48790;55.656;37.702;2022-07-04T07:16:17;14.57;;;5.00;;
62740;SDS011;48790;55.656;37.702;2022-07-04T07:18:44;8.15;;;4.53;;
62740;SDS011;48790;55.656;37.702;2022-07-04T07:21:10;10.30;;;4.63;;
62740;SDS011;48790;55.656;37.702;2022-07-04T07:23:40;9.98;;;4.60;;
62740;SDS011;48790;55.656;37.702;2022-07-04T07:26:06;8.35;;;4.47;;
62740;SDS011;48790;55.656;37.702;2022-07-04T07:28:33;11.50;;;4.50;;
62740;SDS011;48790;55.656;37.702;2022-07-04T07:31:00;11.57;;;4.80;;
62740;SDS011;48790;55.656;37.702;2022-07-04T07:33:26;17.02;;;4.45;;
62740;SDS011;48790;55.656;37.702;2022-07-04T07:35:52;7.65;;;4.10;;
62740;SDS011;48790;55.656;37.702;2022-07-04T07:38:18;9.30;;;4.10;;
62740;SDS011;48790;55.656;37.702;2022-07-04T07:40:44;7.85;;;4.47;;
62740;SDS011;48790;55.656;37.702;2022-07-04T07:43:09;10.55;;;4.30;;
62740;SDS011;48790;55.656;37.702;2022-07-04T07:45:35;6.90;;;4.22;;
62740;SDS011;48790;55.656;37.702;2022-07-04T07:48:02;8.23;;;4.22;;
62740;SDS011;48790;55.656;37.702;2022-07-04T07:50:28;9.60;;;4.28;;
62740;SDS011;48790;55.656;37.702;2022-07-04T07:52:54;7.10;;;4.28;;
62740;SDS011;48790;55.656;37.702;2022-07-04T07:55:20;9.85;;;4.60;;
62740;SDS011;48790;55.656;37.702;2022-07-04T07:57:46;16.17;;;4.32;;
62740;SDS011;48790;55.656;37.702;2022-07-04T08:00:12;9.75;;;4.53;;
62740;SDS011;48790;55.656;37.702;2022-07-04T08:02:38;5.35;;;4.20;;
62740;SDS011;48790;55.656;37.702;2022-07-04T08:05:23;8.52;;;4.38;;
62740;SDS011;48790;55.656;37.702;2022-07-04T08:07:49;7.60;;;4.20;;
62740;SDS011;48790;55.656;37.702;2022-07-04T08:10:14;6.85;;;4.40;;
62740;SDS011;48790;55.656;37.702;2022-07-04T08:12:40;7.57;;;4.13;;
62740;SDS011;48790;55.656;37.702;2022-07-04T08:15:06;9.68;;;4.50;;
62740;SDS011;48790;55.656;37.702;2022-07-04T08:17:33;6.47;;;3.83;;
62740;SDS011;48790;55.656;37.702;2022-07-04T08:19:59;8.40;;;4.50;;
62740;SDS011;48790;55.656;37.702;2022-07-04T08:22:25;9.98;;;4.40;;
62740;SDS011;48790;55.656;37.702;2022-07-04T08:24:51;6.75;;;4.32;;
62740;SDS011;48790;55.656;37.702;2022-07-04T08:27:18;10.10;;;4.38;;
62740;SDS011;48790;55.656;37.702;2022-07-04T08:29:44;7.40;;;4.10;;
62740;SDS011;48790;55.656;37.702;2022-07-04T08:32:10;7.60;;;4.05;;
62740;SDS011;48790;55.656;37.702;2022-07-04T08:34:35;5.22;;;4.05;;
62740;SDS011;48790;55.656;37.702;2022-07-04T08:37:01;8.93;;;4.00;;
62740;SDS011;48790;55.656;37.702;2022-07-04T08:39:28;8.40;;;4.10;;
62740;SDS011;48790;55.656;37.702;2022-07-04T08:41:55;8.15;;;4.10;;
62740;SDS011;48790;55.656;37.702;2022-07-04T08:44:21;6.00;;;3.90;;
62740;SDS011;48790;55.656;37.702;2022-07-04T08:46:49;6.07;;;3.83;;
62740;SDS011;48790;55.656;37.702;2022-07-04T08:49:18;10.52;;;4.70;;
62740;SDS011;48790;55.656;37.702;2022-07-04T08:52:07;8.30;;;4.45;;
62740;SDS011;48790;55.656;37.702;2022-07-04T08:54:36;8.50;;;4.50;;
62740;SDS011;48790;55.656;37.702;2022-07-04T08:57:21;8.60;;;4.63;;
62740;SDS011;48790;55.656;37.702;2022-07-04T09:00:05;15.68;;;4.47;;
62740;SDS011;48790;55.656;37.702;2022-07-04T09:02:32;8.38;;;4.28;;
62740;SDS011;48790;55.656;37.702;2022-07-04T09:04:59;7.15;;;4.75;;
62740;SDS011;48790;55.656;37.702;2022-07-04T09:07:26;11.93;;;4.75;;
62740;SDS011;48790;55.656;37.702;2022-07-04T09:09:53;7.43;;;4.63;;
62740;SDS011;48790;55.656;37.702;2022-07-04T09:12:19;7.40;;;4.30;;
62740;SDS011;48790;55.656;37.702;2022-07-04T09:14:46;8.07;;;4.45;;
62740;SDS011;48790;55.656;37.702;2022-07-04T09:17:11;10.32;;;4.70;;
62740;SDS011;48790;55.656;37.702;2022-07-04T09:19:38;14.45;;;4.60;;
62740;SDS011;48790;55.656;37.702;2022-07-04T09:22:04;10.80;;;5.15;;
62740;SDS011;48790;55.656;37.702;2022-07-04T09:27:11;8.73;;;5.35;;
62740;SDS011;48790;55.656;37.702;2022-07-04T09:29:50;7.78;;;5.53;;
62740;SDS011;48790;55.656;37.702;2022-07-04T09:35:10;16.85;;;6.55;;
62740;SDS011;48790;55.656;37.702;2022-07-04T09:37:42;15.02;;;6.00;;
62740;SDS011;48790;55.656;37.702;2022-07-04T09:43:24;14.73;;;5.90;;
62740;SDS011;48790;55.656;37.702;2022-07-04T09:45:54;7.78;;;5.93;;
62740;SDS011;48790;55.656;37.702;2022-07-04T09:48:21;8.13;;;6.00;;
62740;SDS011;48790;55.656;37.702;2022-07-04T09:50:47;10.13;;;6.15;;
62740;SDS011;48790;55.656;37.702;2022-07-04T09:53:13;8.90;;;6.32;;
62740;SDS011;48790;55.656;37.702;2022-07-04T09:55:39;11.50;;;6.43;;
62740;SDS011;48790;55.656;37.702;2022-07-04T09:58:07;14.15;;;6.50;;
62740;SDS011;48790;55.656;37.702;2022-07-04T10:00:35;14.15;;;6.60;;
62740;SDS011;48790;55.656;37.702;2022-07-04T10:06:13;9.77;;;6.88;;
62740;SDS011;48790;55.656;37.702;2022-07-04T10:08:43;7.22;;;6.22;;
62740;SDS011;48790;55.656;37.702;2022-07-04T10:11:09;8.27;;;7.20;;
62740;SDS011;48790;55.656;37.702;2022-07-04T10:13:37;12.07;;;6.40;;
62740;SDS011;48790;55.656;37.702;2022-07-04T10:16:03;13.27;;;6.97;;
62740;SDS011;48790;55.656;37.702;2022-07-04T10:18:29;8.80;;;6.38;;
62740;SDS011;48790;55.656;37.702;2022-07-04T10:20:55;8.85;;;6.00;;
62740;SDS011;48790;55.656;37.702;2022-07-04T10:23:22;9.85;;;6.10;;
62740;SDS011;48790;55.656;37.702;2022-07-04T10:25:51;12.73;;;6.18;;
62740;SDS011;48790;55.656;37.702;2022-07-04T10:28:19;10.68;;;6.35;;
62740;SDS011;48790;55.656;37.702;2022-07-04T10:30:46;8.13;;;5.55;;
62740;SDS011;48790;55.656;37.702;2022-07-04T10:33:14;10.18;;;5.80;;
62740;SDS011;48790;55.656;37.702;2022-07-04T10:35:48;9.38;;;5.72;;
62740;SDS011;48790;55.656;37.702;2022-07-04T10:38:21;8.95;;;6.00;;
62740;SDS011;48790;55.656;37.702;2022-07-04T10:40:55;9.05;;;5.60;;
62740;SDS011;48790;55.656;37.702;2022-07-04T10:48:28;9.35;;;5.75;;
62740;SDS011;48790;55.656;37.702;2022-07-04T10:53:27;8.70;;;5.70;;
62740;SDS011;48790;55.656;37.702;2022-07-04T10:55:53;6.18;;;5.57;;
62740;SDS011;48790;55.656;37.702;2022-07-04T10:58:40;9.40;;;6.25;;
62740;SDS011;48790;55.656;37.702;2022-07-04T11:03:46;12.52;;;6.00;;
62740;SDS011;48790;55.656;37.702;2022-07-04T11:09:15;8.77;;;5.95;;
62740;SDS011;48790;55.656;37.702;2022-07-04T11:19:46;6.60;;;5.90;;
62740;SDS011;48790;55.656;37.702;2022-07-04T11:22:21;7.90;;;6.38;;
62740;SDS011;48790;55.656;37.702;2022-07-04T11:24:48;15.35;;;6.32;;
62740;SDS011;48790;55.656;37.702;2022-07-04T11:27:14;9.75;;;6.00;;
62740;SDS011;48790;55.656;37.702;2022-07-04T11:29:53;7.22;;;6.03;;
62740;SDS011;48790;55.656;37.702;2022-07-04T11:32:20;16.10;;;6.35;;
62740;SDS011;48790;55.656;37.702;2022-07-04T11:34:47;6.78;;;6.10;;
62740;SDS011;48790;55.656;37.702;2022-07-04T11:37:14;10.80;;;6.22;;
62740;SDS011;48790;55.656;37.702;2022-07-04T11:39:40;17.67;;;6.32;;
62740;SDS011;48790;55.656;37.702;2022-07-04T11:42:06;14.50;;;5.93;;
62740;SDS011;48790;55.656;37.702;2022-07-04T11:44:50;8.82;;;6.55;;
62740;SDS011;48790;55.656;37.702;2022-07-04T11:47:38;13.23;;;6.63;;
62740;SDS011;48790;55.656;37.702;2022-07-04T11:55:04;7.00;;;6.22;;
62740;SDS011;48790;55.656;37.702;2022-07-04T11:57:34;8.10;;;6.38;;
62740;SDS011;48790;55.656;37.702;2022-07-04T12:00:12;11.07;;;6.50;;
62740;SDS011;48790;55.656;37.702;2022-07-04T12:02:39;11.02;;;6.22;;
62740;SDS011;48790;55.656;37.702;2022-07-04T12:05:10;10.77;;;6.35;;
62740;SDS011;48790;55.656;37.702;2022-07-04T12:07:38;10.63;;;6.65;;
62740;SDS011;48790;55.656;37.702;2022-07-04T12:13:00;11.18;;;6.75;;
62740;SDS011;48790;55.656;37.702;2022-07-04T12:15:41;9.90;;;6.80;;
62740;SDS011;48790;55.656;37.702;2022-07-04T12:18:15;9.35;;;6.30;;
62740;SDS011;48790;55.656;37.702;2022-07-04T12:20:45;10.13;;;6.72;;
62740;SDS011;48790;55.656;37.702;2022-07-04T12:23:11;10.15;;;6.35;;
62740;SDS011;48790;55.656;37.702;2022-07-04T12:25:37;10.60;;;7.15;;
62740;SDS011;48790;55.656;37.702;2022-07-04T12:28:05;9.90;;;6.30;;
62740;SDS011;48790;55.656;37.702;2022-07-04T12:30:48;9.40;;;6.32;;
62740;SDS011;48790;55.656;37.702;2022-07-04T12:33:17;8.68;;;6.40;;
62740;SDS011;48790;55.656;37.702;2022-07-04T12:35:46;14.45;;;6.95;;
62740;SDS011;48790;55.656;37.702;2022-07-04T12:38:17;12.35;;;6.68;;
62740;SDS011;48790;55.656;37.702;2022-07-04T12:41:02;10.63;;;6.30;;
62740;SDS011;48790;55.656;37.702;2022-07-04T12:46:11;7.00;;;6.07;;
62740;SDS011;48790;55.656;37.702;2022-07-04T12:51:13;7.15;;;5.95;;
62740;SDS011;48790;55.656;37.702;2022-07-04T12:53:41;9.15;;;6.28;;
62740;SDS011;48790;55.656;37.702;2022-07-04T12:56:08;10.00;;;6.20;;
62740;SDS011;48790;55.656;37.702;2022-07-04T12:58:35;9.35;;;6.40;;
62740;SDS011;48790;55.656;37.702;2022-07-04T13:01:01;10.85;;;6.40;;
62740;SDS011;48790;55.656;37.702;2022-07-04T13:03:27;7.70;;;5.90;;
62740;SDS011;48790;55.656;37.702;2022-07-04T13:05:54;8.65;;;5.85;;
62740;SDS011;48790;55.656;37.702;2022-07-04T13:08:22;9.65;;;6.32;;
62740;SDS011;48790;55.656;37.702;2022-07-04T13:10:48;12.55;;;6.28;;
62740;SDS011;48790;55.656;37.702;2022-07-04T13:13:34;10.68;;;6.47;;
62740;SDS011;48790;55.656;37.702;2022-07-04T13:16:00;12.93;;;6.45;;
62740;SDS011;48790;55.656;37.702;2022-07-04T13:18:26;7.00;;;5.97;;
62740;SDS011;48790;55.656;37.702;2022-07-04T13:20:52;8.02;;;5.90;;
62740;SDS011;48790;55.656;37.702;2022-07-04T13:23:17;13.70;;;6.65;;
62740;SDS011;48790;55.656;37.702;2022-07-04T13:25:43;10.48;;;6.38;;
62740;SDS011;48790;55.656;37.702;2022-07-04T13:28:09;8.82;;;6.18;;
62740;SDS011;48790;55.656;37.702;2022-07-04T13:30:35;10.68;;;6.00;;
62740;SDS011;48790;55.656;37.702;2022-07-04T13:33:01;9.23;;;6.00;;
62740;SDS011;48790;55.656;37.702;2022-07-04T13:35:27;6.65;;;5.80;;
62740;SDS011;48790;55.656;37.702;2022-07-04T13:37:54;9.52;;;5.90;;
62740;SDS011;48790;55.656;37.702;2022-07-04T13:40:20;9.48;;;5.97;;
62740;SDS011;48790;55.656;37.702;2022-07-04T13:42:46;11.60;;;6.10;;
62740;SDS011;48790;55.656;37.702;2022-07-04T13:45:24;12.15;;;6.60;;
62740;SDS011;48790;55.656;37.702;2022-07-04T13:47:52;8.57;;;5.82;;
62740;SDS011;48790;55.656;37.702;2022-07-04T13:50:18;8.95;;;5.75;;
62740;SDS011;48790;55.656;37.702;2022-07-04T13:52:46;11.43;;;5.90;;
62740;SDS011;48790;55.656;37.702;2022-07-04T13:55:13;8.68;;;5.68;;
62740;SDS011;48790;55.656;37.702;2022-07-04T13:57:39;11.63;;;6.00;;
62740;SDS011;48790;55.656;37.702;2022-07-04T14:00:06;7.32;;;6.10;;
62740;SDS011;48790;55.656;37.702;2022-07-04T14:02:33;13.23;;;6.00;;
62740;SDS011;48790;55.656;37.702;2022-07-04T14:04:59;17.80;;;6.25;;
62740;SDS011;48790;55.656;37.702;2022-07-04T14:07:25;8.27;;;5.90;;
62740;SDS011;48790;55.656;37.702;2022-07-04T14:09:51;14.35;;;6.05;;
62740;SDS011;48790;55.656;37.702;2022-07-04T14:12:17;14.48;;;6.55;;
62740;SDS011;48790;55.656;37.702;2022-07-04T14:14:44;9.65;;;6.15;;
62740;SDS011;48790;55.656;37.702;2022-07-04T14:17:10;12.70;;;6.20;;
62740;SDS011;48790;55.656;37.702;2022-07-04T14:19:36;11.57;;;6.03;;
62740;SDS011;48790;55.656;37.702;2022-07-04T14:22:02;10.23;;;6.32;;
62740;SDS011;48790;55.656;37.702;2022-07-04T14:24:28;10.52;;;6.45;;
62740;SDS011;48790;55.656;37.702;2022-07-04T14:26:54;9.65;;;6.32;;
62740;SDS011;48790;55.656;37.702;2022-07-04T14:29:20;9.25;;;6.55;;
62740;SDS011;48790;55.656;37.702;2022-07-04T14:31:46;10.73;;;6.88;;
62740;SDS011;48790;55.656;37.702;2022-07-04T14:34:13;9.55;;;6.55;;
62740;SDS011;48790;55.656;37.702;2022-07-04T14:36:39;15.25;;;6.53;;
62740;SDS011;48790;55.656;37.702;2022-07-04T14:39:06;9.40;;;6.30;;
62740;SDS011;48790;55.656;37.702;2022-07-04T14:41:33;14.27;;;6.05;;
62740;SDS011;48790;55.656;37.702;2022-07-04T14:43:59;12.98;;;6.30;;
62740;SDS011;48790;55.656;37.702;2022-07-04T14:46:26;8.52;;;5.63;;
62740;SDS011;48790;55.656;37.702;2022-07-04T14:48:52;17.40;;;6.47;;
62740;SDS011;48790;55.656;37.702;2022-07-04T14:51:18;11.10;;;5.97;;
62740;SDS011;48790;55.656;37.702;2022-07-04T14:53:44;12.23;;;6.72;;
62740;SDS011;48790;55.656;37.702;2022-07-04T14:56:10;7.90;;;6.20;;
62740;SDS011;48790;55.656;37.702;2022-07-04T14:58:37;8.63;;;6.35;;
62740;SDS011;48790;55.656;37.702;2022-07-04T15:01:05;9.68;;;6.15;;
62740;SDS011;48790;55.656;37.702;2022-07-04T15:03:30;14.77;;;6.57;;
62740;SDS011;48790;55.656;37.702;2022-07-04T15:05:56;11.82;;;5.82;;
62740;SDS011;48790;55.656;37.702;2022-07-04T15:08:23;12.77;;;6.50;;
62740;SDS011;48790;55.656;37.702;2022-07-04T15:10:50;13.20;;;6.65;;
62740;SDS011;48790;55.656;37.702;2022-07-04T15:13:17;14.38;;;6.32;;